Time;durP1;ratioP1;P1;durP2;ratioP2;P2;SDS_P1;SDS_P2;PMS_P1;PMS_P2;Temp;Humidity;BMP_temperature;BMP_pressure;BME280_temperature;BME280_humidity;BME280_pressure;Samples;Min_cycle;Max_cycle;Signal;HPM_P1;HPM_P2
2021/12/11 00:01:16;;;;;;;1.60;1.50;;;;;;;;;;5028076;28;20029;-72
2021/12/11 00:03:43;;;;;;;0.80;0.80;;;;;;;;;;5031362;28;20056;-72
2021/12/11 00:06:10;;;;;;;3.13;2.83;;;;;;;;;;5046210;28;20502;-72
2021/12/11 00:08:36;;;;;;;0.70;0.60;;;;;;;;;;5041026;28;20028;-72
2021/12/11 00:11:13;;;;;;;7.60;1.90;;;;;;;;;;5030271;28;20094;-73
2021/12/11 00:13:40;;;;;;;2.88;1.80;;;;;;;;;;5027744;28;20064;-72
2021/12/11 00:16:08;;;;;;;1.35;1.27;;;;;;;;;;5038507;28;22208;-72
2021/12/11 00:18:34;;;;;;;1.48;1.38;;;;;;;;;;5032481;28;20079;-72
2021/12/11 00:21:08;;;;;;;1.88;1.77;;;;;;;;;;5036865;28;20029;-72
2021/12/11 00:23:43;;;;;;;3.15;2.42;;;;;;;;;;5039796;28;20403;-73
2021/12/11 00:26:11;;;;;;;3.95;1.05;;;;;;;;;;5027467;28;20120;-72
2021/12/11 00:28:47;;;;;;;0.57;0.57;;;;;;;;;;5032355;28;20451;-72
2021/12/11 00:31:14;;;;;;;16.02;1.52;;;;;;;;;;5046842;28;20387;-72
2021/12/11 00:33:40;;;;;;;5.95;3.28;;;;;;;;;;5031278;28;20029;-72
2021/12/11 00:36:10;;;;;;;5.05;3.15;;;;;;;;;;5034824;28;20042;-72
2021/12/11 00:38:36;;;;;;;1.40;1.33;;;;;;;;;;5038189;28;20032;-72
2021/12/11 00:41:04;;;;;;;1.73;1.33;;;;;;;;;;5040785;28;20033;-72
2021/12/11 00:43:34;;;;;;;1.50;1.17;;;;;;;;;;5027392;28;20029;-72
2021/12/11 00:46:00;;;;;;;2.80;1.85;;;;;;;;;;5031911;28;20495;-72
2021/12/11 00:48:27;;;;;;;0.68;0.68;;;;;;;;;;5036702;28;20029;-73
2021/12/11 00:50:56;;;;;;;3.03;1.48;;;;;;;;;;5021314;28;20034;-72
2021/12/11 00:53:24;;;;;;;1.65;1.55;;;;;;;;;;5026585;28;20112;-73
2021/12/11 00:55:53;;;;;;;2.38;1.70;;;;;;;;;;5035559;28;20032;-73
2021/12/11 00:58:22;;;;;;;9.10;1.88;;;;;;;;;;5032595;28;20118;-72
2021/12/11 01:00:47;;;;;;;2.28;0.93;;;;;;;;;;5028276;28;20057;-73
2021/12/11 01:03:19;;;;;;;4.47;1.85;;;;;;;;;;5033292;28;20052;-72
2021/12/11 01:05:46;;;;;;;1.80;1.70;;;;;;;;;;5034404;28;20131;-72
2021/12/11 01:08:19;;;;;;;1.27;1.17;;;;;;;;;;5030449;28;20126;-72
2021/12/11 01:10:54;;;;;;;8.13;2.47;;;;;;;;;;5026892;28;20117;-73
2021/12/11 01:13:24;;;;;;;2.50;2.30;;;;;;;;;;5041024;28;20030;-72
2021/12/11 01:15:56;;;;;;;1.88;1.77;;;;;;;;;;5035626;28;20496;-72
2021/12/11 01:18:29;;;;;;;1.08;1.08;;;;;;;;;;5040263;28;20045;-72
2021/12/11 01:21:04;;;;;;;8.38;0.70;;;;;;;;;;5025231;28;20033;-73
2021/12/11 01:23:56;;;;;;;2.60;2.35;;;;;;;;;;5033898;28;20746;-73
2021/12/11 01:26:22;;;;;;;3.30;2.30;;;;;;;;;;5032435;28;20045;-72
2021/12/11 01:28:49;;;;;;;0.30;0.30;;;;;;;;;;5028503;28;20124;-72
2021/12/11 01:31:17;;;;;;;0.60;0.60;;;;;;;;;;5027706;28;20561;-73
2021/12/11 01:33:43;;;;;;;11.25;1.77;;;;;;;;;;5033647;28;20029;-72
2021/12/11 01:36:10;;;;;;;1.17;1.05;;;;;;;;;;5025348;28;20029;-72
2021/12/11 01:38:36;;;;;;;1.25;1.13;;;;;;;;;;5024028;28;20040;-72
2021/12/11 01:41:06;;;;;;;0.95;0.95;;;;;;;;;;5027434;28;20077;-72
2021/12/11 01:43:32;;;;;;;1.25;1.15;;;;;;;;;;5025720;28;20377;-72
2021/12/11 01:46:00;;;;;;;5.28;1.48;;;;;;;;;;5034770;28;20033;-72
2021/12/11 01:48:30;;;;;;;4.43;0.98;;;;;;;;;;5034999;28;20033;-72
2021/12/11 01:50:59;;;;;;;2.45;0.80;;;;;;;;;;5027919;28;20025;-72
2021/12/11 01:53:31;;;;;;;0.95;0.95;;;;;;;;;;5029435;28;20029;-73
2021/12/11 01:56:00;;;;;;;1.73;1.63;;;;;;;;;;5023835;28;20037;-72
2021/12/11 01:58:36;;;;;;;1.08;1.08;;;;;;;;;;5035799;28;20047;-73
2021/12/11 02:01:09;;;;;;;3.45;2.38;;;;;;;;;;5035307;28;20053;-73
2021/12/11 02:03:35;;;;;;;0.40;0.40;;;;;;;;;;5031670;28;20029;-73
2021/12/11 02:06:01;;;;;;;1.05;1.05;;;;;;;;;;5024907;28;20044;-72
2021/12/11 02:08:29;;;;;;;1.75;1.35;;;;;;;;;;5027442;28;20454;-72
2021/12/11 02:11:00;;;;;;;3.50;2.08;;;;;;;;;;5019947;28;20038;-72
2021/12/11 02:13:49;;;;;;;1.50;1.13;;;;;;;;;;5019737;28;20468;-72
2021/12/11 02:16:25;;;;;;;2.83;1.90;;;;;;;;;;5032751;28;20051;-72
2021/12/11 02:18:53;;;;;;;3.30;2.75;;;;;;;;;;5033315;28;20018;-72
2021/12/11 02:21:21;;;;;;;1.70;1.60;;;;;;;;;;5038792;28;20022;-72
2021/12/11 02:24:03;;;;;;;1.20;1.10;;;;;;;;;;5032322;28;20053;-72
2021/12/11 02:26:30;;;;;;;2.20;1.73;;;;;;;;;;5034719;28;20025;-72
2021/12/11 02:29:00;;;;;;;1.33;1.27;;;;;;;;;;5029256;28;20033;-73
2021/12/11 02:31:29;;;;;;;0.70;0.70;;;;;;;;;;5030459;28;20515;-72
2021/12/11 02:34:16;;;;;;;1.40;1.02;;;;;;;;;;5030599;28;20022;-73
2021/12/11 02:36:58;;;;;;;0.88;0.88;;;;;;;;;;5025052;28;20187;-72
2021/12/11 02:39:27;;;;;;;1.85;1.58;;;;;;;;;;5026713;28;20026;-72
2021/12/11 02:42:08;;;;;;;0.90;0.88;;;;;;;;;;5025844;28;20029;-72
2021/12/11 02:44:42;;;;;;;0.52;0.52;;;;;;;;;;5039910;28;20025;-73
2021/12/11 02:47:14;;;;;;;3.38;1.17;;;;;;;;;;5037770;28;20072;-72
2021/12/11 02:49:45;;;;;;;0.70;0.70;;;;;;;;;;5040146;28;20030;-72
2021/12/11 02:52:14;;;;;;;1.30;1.27;;;;;;;;;;5024838;28;20038;-72
2021/12/11 02:54:43;;;;;;;7.13;1.70;;;;;;;;;;5023668;28;20033;-72
2021/12/11 02:57:21;;;;;;;8.10;1.75;;;;;;;;;;5020172;28;20034;-72
2021/12/11 02:59:48;;;;;;;3.88;2.47;;;;;;;;;;5030695;28;20649;-72
2021/12/11 03:02:20;;;;;;;0.88;0.80;;;;;;;;;;5025264;28;20014;-72
2021/12/11 03:04:51;;;;;;;3.15;2.85;;;;;;;;;;5033522;28;20037;-72
2021/12/11 03:07:20;;;;;;;0.88;0.88;;;;;;;;;;5028955;28;20032;-72
2021/12/11 03:09:48;;;;;;;0.50;0.50;;;;;;;;;;5023074;28;20037;-72
2021/12/11 03:12:14;;;;;;;1.70;0.60;;;;;;;;;;5037998;28;20032;-72
2021/12/11 03:14:41;;;;;;;0.95;0.95;;;;;;;;;;5043476;28;20087;-72
2021/12/11 03:17:07;;;;;;;0.75;0.70;;;;;;;;;;5024971;28;20033;-72
2021/12/11 03:19:35;;;;;;;2.88;2.00;;;;;;;;;;5029009;28;20491;-72
2021/12/11 03:22:03;;;;;;;2.60;2.35;;;;;;;;;;5023300;28;20025;-72
2021/12/11 03:24:29;;;;;;;0.80;0.80;;;;;;;;;;5055141;28;20047;-72
2021/12/11 03:26:56;;;;;;;3.47;0.82;;;;;;;;;;5034656;28;20388;-72
2021/12/11 03:29:22;;;;;;;0.65;0.65;;;;;;;;;;5032191;28;20033;-71
2021/12/11 03:31:49;;;;;;;2.53;1.77;;;;;;;;;;5038842;28;20139;-72
2021/12/11 03:34:20;;;;;;;2.75;1.77;;;;;;;;;;5034013;28;20037;-72
2021/12/11 03:36:47;;;;;;;0.77;0.47;;;;;;;;;;5029264;28;20034;-72
2021/12/11 03:39:15;;;;;;;1.30;0.73;;;;;;;;;;5028301;28;20029;-72
2021/12/11 03:41:41;;;;;;;1.85;1.75;;;;;;;;;;5024555;28;20030;-72
2021/12/11 03:44:08;;;;;;;0.35;0.35;;;;;;;;;;5028094;28;20515;-73
2021/12/11 03:46:34;;;;;;;2.03;1.80;;;;;;;;;;5033171;28;20939;-72
2021/12/11 03:49:01;;;;;;;1.55;1.45;;;;;;;;;;5032775;28;20041;-72
2021/12/11 03:51:30;;;;;;;2.15;1.30;;;;;;;;;;5031078;28;20400;-72
2021/12/11 03:53:56;;;;;;;4.75;2.08;;;;;;;;;;5045257;28;20075;-72
2021/12/11 03:56:22;;;;;;;4.45;1.92;;;;;;;;;;5028453;28;20017;-72
2021/12/11 03:58:50;;;;;;;2.65;1.85;;;;;;;;;;5027787;28;20545;-72
2021/12/11 04:01:26;;;;;;;0.50;0.50;;;;;;;;;;5032769;28;20021;-72
2021/12/11 04:03:54;;;;;;;1.77;1.67;;;;;;;;;;5028693;28;20039;-72
2021/12/11 04:06:21;;;;;;;2.50;1.35;;;;;;;;;;5022393;28;20038;-72
2021/12/11 04:08:47;;;;;;;3.55;2.85;;;;;;;;;;5030144;28;20033;-72
2021/12/11 04:11:17;;;;;;;2.60;1.75;;;;;;;;;;5028935;28;20032;-72
2021/12/11 04:13:43;;;;;;;2.17;1.98;;;;;;;;;;5040440;28;20036;-72
2021/12/11 04:16:10;;;;;;;0.73;0.73;;;;;;;;;;5039658;28;20032;-72
2021/12/11 04:18:36;;;;;;;4.70;3.45;;;;;;;;;;5031771;28;20606;-72
2021/12/11 04:21:02;;;;;;;2.58;2.03;;;;;;;;;;5042174;28;20129;-72
2021/12/11 04:23:28;;;;;;;1.10;0.88;;;;;;;;;;5031682;28;20132;-72
2021/12/11 04:25:56;;;;;;;2.08;1.65;;;;;;;;;;5037742;28;20104;-72
2021/12/11 04:28:24;;;;;;;1.83;1.27;;;;;;;;;;5034016;28;20056;-72
2021/12/11 04:30:52;;;;;;;1.65;1.38;;;;;;;;;;5039330;28;20053;-71
2021/12/11 04:33:18;;;;;;;1.40;1.33;;;;;;;;;;5039722;28;20029;-72
2021/12/11 04:35:44;;;;;;;2.63;1.35;;;;;;;;;;5029425;28;20025;-72
2021/12/11 04:38:11;;;;;;;1.85;1.73;;;;;;;;;;5031938;28;20136;-73
2021/12/11 04:40:41;;;;;;;1.23;1.17;;;;;;;;;;5022160;28;20014;-72
2021/12/11 04:43:12;;;;;;;1.25;1.25;;;;;;;;;;5028213;28;20029;-72
2021/12/11 04:45:40;;;;;;;0.47;0.47;;;;;;;;;;5040256;28;20051;-73
2021/12/11 04:48:18;;;;;;;1.65;1.55;;;;;;;;;;5045211;28;20064;-72
2021/12/11 04:50:52;;;;;;;2.22;1.98;;;;;;;;;;5028071;28;20061;-72
2021/12/11 04:53:42;;;;;;;0.85;0.85;;;;;;;;;;5029682;28;20115;-72
2021/12/11 05:02:55;;;;;;;0.77;0.77;;;;;;;;;;5033753;28;20071;-72
2021/12/11 05:07:19;;;;;;;2.72;1.02;;;;;;;;;;5027557;28;20033;-72
2021/12/11 05:09:55;;;;;;;3.90;2.80;;;;;;;;;;5031824;28;20022;-72
2021/12/11 05:14:51;;;;;;;0.55;0.55;;;;;;;;;;5020384;28;20038;-72
2021/12/11 05:17:17;;;;;;;2.20;2.03;;;;;;;;;;5036245;28;20384;-72
2021/12/11 05:19:43;;;;;;;1.08;1.08;;;;;;;;;;5031701;28;20013;-72
2021/12/11 05:22:10;;;;;;;4.20;3.30;;;;;;;;;;5035502;28;20066;-72
2021/12/11 05:24:40;;;;;;;1.58;1.48;;;;;;;;;;5028916;28;20520;-72
2021/12/11 05:27:07;;;;;;;2.85;1.40;;;;;;;;;;5034613;28;20112;-72
2021/12/11 05:29:33;;;;;;;1.45;1.35;;;;;;;;;;5031327;28;20033;-72
2021/12/11 05:32:00;;;;;;;1.05;1.05;;;;;;;;;;5024802;28;20036;-72
2021/12/11 05:34:26;;;;;;;4.22;3.50;;;;;;;;;;5028672;28;20040;-72
2021/12/11 05:36:52;;;;;;;0.50;0.50;;;;;;;;;;5040634;28;20462;-72
2021/12/11 05:39:19;;;;;;;2.53;2.33;;;;;;;;;;5038323;28;20034;-73
2021/12/11 05:41:46;;;;;;;0.85;0.85;;;;;;;;;;5036006;28;20024;-73
2021/12/11 05:44:12;;;;;;;1.08;1.08;;;;;;;;;;5034987;28;20031;-73
2021/12/11 05:46:39;;;;;;;1.67;1.15;;;;;;;;;;5025363;28;20040;-73
2021/12/11 05:49:06;;;;;;;1.05;0.98;;;;;;;;;;5040262;28;20056;-73
2021/12/11 05:51:38;;;;;;;1.38;1.27;;;;;;;;;;5040054;28;20348;-73
2021/12/11 05:54:04;;;;;;;0.93;0.90;;;;;;;;;;5033493;28;20033;-73
2021/12/11 05:56:34;;;;;;;0.63;0.63;;;;;;;;;;5032223;28;20123;-73
2021/12/11 05:59:01;;;;;;;6.60;2.72;;;;;;;;;;5036096;28;20036;-73
2021/12/11 06:01:26;;;;;;;3.47;2.85;;;;;;;;;;5033717;28;20025;-73
2021/12/11 06:03:52;;;;;;;1.40;1.35;;;;;;;;;;5023474;28;20530;-73
2021/12/11 06:06:18;;;;;;;4.35;1.63;;;;;;;;;;5035344;28;20068;-73
2021/12/11 06:08:44;;;;;;;3.15;1.52;;;;;;;;;;5035720;28;20033;-73
2021/12/11 06:11:11;;;;;;;3.15;0.93;;;;;;;;;;5025779;28;20116;-73
2021/12/11 06:13:37;;;;;;;0.35;0.35;;;;;;;;;;5024908;28;20392;-73
2021/12/11 06:16:04;;;;;;;3.35;2.08;;;;;;;;;;5034355;28;20017;-73
2021/12/11 06:18:31;;;;;;;2.05;1.52;;;;;;;;;;5032177;28;20468;-73
2021/12/11 06:20:57;;;;;;;2.60;0.85;;;;;;;;;;5031357;28;20021;-73
2021/12/11 06:23:23;;;;;;;3.50;2.03;;;;;;;;;;5035101;28;20083;-72
2021/12/11 06:25:50;;;;;;;2.00;1.85;;;;;;;;;;5039451;28;20025;-73
2021/12/11 06:28:16;;;;;;;0.65;0.65;;;;;;;;;;5039153;28;20056;-74
2021/12/11 06:30:42;;;;;;;3.13;1.33;;;;;;;;;;5028771;28;20124;-73
2021/12/11 06:33:09;;;;;;;1.67;1.13;;;;;;;;;;5024312;28;20124;-73
2021/12/11 06:35:56;;;;;;;6.45;1.95;;;;;;;;;;5028831;28;20048;-73
2021/12/11 06:38:23;;;;;;;6.55;1.90;;;;;;;;;;5034111;28;20017;-73
2021/12/11 06:40:50;;;;;;;2.10;1.70;;;;;;;;;;5025572;28;20458;-73
2021/12/11 06:43:16;;;;;;;1.23;1.15;;;;;;;;;;5040309;28;20044;-73
2021/12/11 06:45:42;;;;;;;1.08;0.90;;;;;;;;;;5030229;28;20387;-73
2021/12/11 06:48:08;;;;;;;1.05;1.05;;;;;;;;;;5030652;28;20036;-73
2021/12/11 06:50:34;;;;;;;4.20;2.15;;;;;;;;;;5025414;28;20021;-73
2021/12/11 06:53:00;;;;;;;1.20;1.10;;;;;;;;;;5026865;28;20040;-74
2021/12/11 06:55:27;;;;;;;0.85;0.85;;;;;;;;;;5035502;28;20037;-73
2021/12/11 06:57:53;;;;;;;1.38;1.25;;;;;;;;;;5036908;28;20033;-73
2021/12/11 07:00:19;;;;;;;0.70;0.70;;;;;;;;;;5031310;28;20071;-73
2021/12/11 07:02:45;;;;;;;0.77;0.77;;;;;;;;;;5030170;28;20392;-73
2021/12/11 07:05:12;;;;;;;0.93;0.88;;;;;;;;;;5044559;28;20395;-73
2021/12/11 07:07:40;;;;;;;4.28;1.80;;;;;;;;;;5031292;28;20028;-73
2021/12/11 07:10:07;;;;;;;1.00;0.95;;;;;;;;;;5035425;28;20899;-74
2021/12/11 07:12:33;;;;;;;0.30;0.30;;;;;;;;;;5027235;28;20468;-73
2021/12/11 07:14:59;;;;;;;4.38;2.83;;;;;;;;;;5031478;28;20159;-74
2021/12/11 07:17:25;;;;;;;1.40;1.30;;;;;;;;;;5023741;28;20108;-73
2021/12/11 07:19:51;;;;;;;6.28;0.73;;;;;;;;;;5023831;28;20049;-74
2021/12/11 07:22:17;;;;;;;2.15;1.48;;;;;;;;;;5031537;28;20111;-73
2021/12/11 07:24:47;;;;;;;3.55;1.48;;;;;;;;;;5034904;28;20139;-73
2021/12/11 07:27:14;;;;;;;5.88;3.53;;;;;;;;;;5045461;28;20021;-73
2021/12/11 07:29:40;;;;;;;1.58;1.48;;;;;;;;;;5042300;28;20030;-73
2021/12/11 07:32:07;;;;;;;2.28;2.08;;;;;;;;;;5032165;28;20067;-74
2021/12/11 07:34:33;;;;;;;4.88;1.35;;;;;;;;;;5029161;28;20029;-73
2021/12/11 07:37:01;;;;;;;1.63;1.48;;;;;;;;;;5036561;28;20499;-73
2021/12/11 07:39:27;;;;;;;0.77;0.77;;;;;;;;;;5037522;28;20098;-73
2021/12/11 07:41:53;;;;;;;3.53;1.30;;;;;;;;;;5031169;28;20520;-73
2021/12/11 07:44:20;;;;;;;19.08;2.15;;;;;;;;;;5037028;28;20033;-73
2021/12/11 07:46:46;;;;;;;2.15;0.95;;;;;;;;;;5038460;28;20033;-73
2021/12/11 07:49:12;;;;;;;5.35;3.78;;;;;;;;;;5043353;28;20474;-73
2021/12/11 07:51:39;;;;;;;2.80;2.45;;;;;;;;;;5041450;28;20048;-74
2021/12/11 07:54:06;;;;;;;0.77;0.75;;;;;;;;;;5025762;28;20063;-73
2021/12/11 07:56:32;;;;;;;0.35;0.35;;;;;;;;;;5025183;28;20027;-74
2021/12/11 07:58:59;;;;;;;11.40;3.95;;;;;;;;;;5035247;28;20385;-73
2021/12/11 08:01:26;;;;;;;1.58;0.93;;;;;;;;;;5042637;28;20025;-73
2021/12/11 08:03:57;;;;;;;1.27;1.17;;;;;;;;;;5032295;28;20604;-73
2021/12/11 08:06:22;;;;;;;3.33;2.13;;;;;;;;;;5031648;28;20053;-73
2021/12/11 08:08:48;;;;;;;0.17;0.17;;;;;;;;;;5035496;28;20466;-73
2021/12/11 08:11:17;;;;;;;1.27;1.08;;;;;;;;;;5040431;28;20048;-74
2021/12/11 08:13:44;;;;;;;4.78;2.00;;;;;;;;;;5028046;28;20112;-73
2021/12/11 08:16:10;;;;;;;1.20;1.05;;;;;;;;;;5029777;28;20040;-73
2021/12/11 08:18:36;;;;;;;0.45;0.45;;;;;;;;;;5037194;28;20025;-73
2021/12/11 08:21:04;;;;;;;0.45;0.45;;;;;;;;;;5038775;28;20108;-72
2021/12/11 08:23:30;;;;;;;3.40;1.33;;;;;;;;;;5039573;28;20088;-74
2021/12/11 08:25:57;;;;;;;5.22;1.80;;;;;;;;;;5030572;28;20029;-77
2021/12/11 08:28:25;;;;;;;2.25;1.73;;;;;;;;;;5034002;28;20389;-74
2021/12/11 08:30:52;;;;;;;0.40;0.40;;;;;;;;;;5025774;28;20033;-74
2021/12/11 08:33:19;;;;;;;0.38;0.38;;;;;;;;;;5032350;28;20059;-80
2021/12/11 08:35:45;;;;;;;1.17;0.93;;;;;;;;;;5028726;28;20112;-80
2021/12/11 08:38:11;;;;;;;0.93;0.93;;;;;;;;;;5028852;28;20460;-73
2021/12/11 08:40:39;;;;;;;1.60;1.10;;;;;;;;;;5032525;28;20032;-74
2021/12/11 08:43:06;;;;;;;3.40;1.92;;;;;;;;;;5037987;28;20029;-73
2021/12/11 08:45:45;;;;;;;2.05;1.45;;;;;;;;;;5032741;28;20038;-73
2021/12/11 08:48:13;;;;;;;2.17;0.73;;;;;;;;;;5027768;28;20479;-72
2021/12/11 08:50:39;;;;;;;0.80;0.80;;;;;;;;;;5029883;28;20048;-73
2021/12/11 08:53:05;;;;;;;2.78;2.20;;;;;;;;;;5021956;28;20038;-73
2021/12/11 08:55:33;;;;;;;2.13;0.85;;;;;;;;;;5025673;28;20017;-73
2021/12/11 08:57:59;;;;;;;5.43;2.28;;;;;;;;;;5027924;28;20045;-73
2021/12/11 09:00:28;;;;;;;0.25;0.25;;;;;;;;;;5033236;28;20025;-73
2021/12/11 09:03:35;;;;;;;1.88;1.65;;;;;;;;;;5032444;28;20928;-72
2021/12/11 09:06:08;;;;;;;0.10;0.10;;;;;;;;;;5024219;28;20029;-73
2021/12/11 09:08:40;;;;;;;0.75;0.40;;;;;;;;;;5021439;28;20090;-72
2021/12/11 09:11:08;;;;;;;5.78;2.92;;;;;;;;;;5024738;28;20025;-72
2021/12/11 09:13:41;;;;;;;0.65;0.65;;;;;;;;;;5030952;28;20083;-73
2021/12/11 09:16:07;;;;;;;0.55;0.55;;;;;;;;;;5037810;28;20361;-73
2021/12/11 09:18:39;;;;;;;1.17;0.63;;;;;;;;;;5033120;28;20037;-73
2021/12/11 09:21:11;;;;;;;0.38;0.38;;;;;;;;;;5043698;28;20483;-73
2021/12/11 09:23:42;;;;;;;0.32;0.32;;;;;;;;;;5043674;28;20053;-73
2021/12/11 09:26:13;;;;;;;0.77;0.77;;;;;;;;;;5037674;28;20798;-73
2021/12/11 09:28:43;;;;;;;0.70;0.38;;;;;;;;;;5034254;28;20040;-72
2021/12/11 09:31:18;;;;;;;0.50;0.50;;;;;;;;;;5033308;28;20025;-73
2021/12/11 09:33:48;;;;;;;0.32;0.32;;;;;;;;;;5036149;28;20123;-73
2021/12/11 09:36:22;;;;;;;0.30;0.30;;;;;;;;;;5027443;28;20030;-72
2021/12/11 09:38:52;;;;;;;0.05;0.05;;;;;;;;;;5029798;28;20032;-73
2021/12/11 09:41:20;;;;;;;1.75;1.38;;;;;;;;;;5028609;28;20025;-73
2021/12/11 09:43:53;;;;;;;0.10;0.10;;;;;;;;;;5039095;28;20159;-72
2021/12/11 09:46:24;;;;;;;0.10;0.10;;;;;;;;;;5039334;28;20134;-74
2021/12/11 09:48:51;;;;;;;0.30;0.30;;;;;;;;;;5024642;28;20040;-74
2021/12/11 09:51:25;;;;;;;0.55;0.55;;;;;;;;;;5028823;28;20036;-76
2021/12/11 09:53:52;;;;;;;0.80;0.57;;;;;;;;;;5031924;28;20030;-74
2021/12/11 09:56:29;;;;;;;1.65;1.10;;;;;;;;;;5038874;28;20521;-71
2021/12/11 09:58:59;;;;;;;2.33;1.08;;;;;;;;;;5031105;28;20029;-71
2021/12/11 10:01:29;;;;;;;1.08;1.08;;;;;;;;;;5024686;28;20025;-72
2021/12/11 10:04:02;;;;;;;0.52;0.52;;;;;;;;;;5027535;28;20439;-73
2021/12/11 10:06:42;;;;;;;0.88;0.80;;;;;;;;;;5025126;28;20120;-73
2021/12/11 10:09:20;;;;;;;0.60;0.60;;;;;;;;;;5033987;28;20114;-73
2021/12/11 10:11:50;;;;;;;1.65;0.95;;;;;;;;;;5030440;28;20048;-73
2021/12/11 10:14:18;;;;;;;5.15;1.13;;;;;;;;;;5030068;28;20454;-73
2021/12/11 10:16:47;;;;;;;1.00;1.00;;;;;;;;;;5039639;28;20288;-73
2021/12/11 10:19:15;;;;;;;2.08;0.75;;;;;;;;;;5038816;28;20094;-73
2021/12/11 10:21:43;;;;;;;1.58;1.40;;;;;;;;;;5041791;28;20013;-73
2021/12/11 10:24:12;;;;;;;0.20;0.20;;;;;;;;;;5036300;28;20052;-73
2021/12/11 10:26:38;;;;;;;0.63;0.47;;;;;;;;;;5032968;28;20499;-73
2021/12/11 10:29:07;;;;;;;0.35;0.35;;;;;;;;;;5043406;28;20114;-73
2021/12/11 10:31:35;;;;;;;1.38;1.27;;;;;;;;;;5045131;28;20411;-73
2021/12/11 10:34:03;;;;;;;0.50;0.50;;;;;;;;;;5035521;28;20464;-73
2021/12/11 10:36:31;;;;;;;0.68;0.68;;;;;;;;;;5032187;28;20025;-72
2021/12/11 10:38:58;;;;;;;2.10;1.58;;;;;;;;;;5043195;28;20475;-73
2021/12/11 10:41:26;;;;;;;0.93;0.93;;;;;;;;;;5045066;28;20033;-73
2021/12/11 10:43:54;;;;;;;1.40;1.33;;;;;;;;;;5043119;28;20430;-73
2021/12/11 10:46:22;;;;;;;1.58;0.75;;;;;;;;;;5035408;28;20108;-73
2021/12/11 10:48:48;;;;;;;0.77;0.77;;;;;;;;;;5043368;28;20022;-72
2021/12/11 10:51:18;;;;;;;1.60;1.50;;;;;;;;;;5043773;28;20029;-73
2021/12/11 10:53:46;;;;;;;0.30;0.30;;;;;;;;;;5043359;28;20044;-73
2021/12/11 10:56:13;;;;;;;2.75;1.10;;;;;;;;;;5042188;28;20029;-73
2021/12/11 10:58:42;;;;;;;1.33;1.23;;;;;;;;;;5040238;28;20028;-72
2021/12/11 11:01:13;;;;;;;0.75;0.75;;;;;;;;;;5038326;28;20032;-73
2021/12/11 11:03:39;;;;;;;;;;;;;;;;;;5023755;28;20037;-73
2021/12/11 11:06:06;;;;;;;0.30;0.30;;;;;;;;;;5019625;28;19909;-73
2021/12/11 11:08:32;;;;;;;0.30;0.30;;;;;;;;;;5025752;28;20029;-75
2021/12/11 11:11:07;;;;;;;0.30;0.30;;;;;;;;;;5030648;28;20115;-76
2021/12/11 11:13:36;;;;;;;0.88;0.73;;;;;;;;;;5032943;28;20427;-73
2021/12/11 11:16:06;;;;;;;0.50;0.50;;;;;;;;;;5033002;28;20032;-75
2021/12/11 11:18:38;;;;;;;0.63;0.63;;;;;;;;;;5024141;28;20036;-73
2021/12/11 11:21:09;;;;;;;1.15;1.05;;;;;;;;;;5025669;28;20024;-78
2021/12/11 11:23:35;;;;;;;;;;;;;;;;;;5027664;28;20507;-73
2021/12/11 11:26:04;;;;;;;0.40;0.40;;;;;;;;;;5026244;28;19917;-76
2021/12/11 11:28:33;;;;;;;3.40;1.75;;;;;;;;;;5035495;28;20127;-73
2021/12/11 11:31:00;;;;;;;2.85;1.65;;;;;;;;;;5023071;28;20112;-75
2021/12/11 11:33:27;;;;;;;0.95;0.85;;;;;;;;;;5024137;28;20025;-74
2021/12/11 11:35:53;;;;;;;1.05;1.00;;;;;;;;;;5022114;28;20021;-73
2021/12/11 11:38:22;;;;;;;0.45;0.45;;;;;;;;;;5024643;28;20238;-71
2021/12/11 11:40:50;;;;;;;1.13;1.13;;;;;;;;;;5036466;28;20541;-73
2021/12/11 11:43:17;;;;;;;10.15;1.30;;;;;;;;;;5027643;28;20030;-72
2021/12/11 11:45:43;;;;;;;0.65;0.65;;;;;;;;;;5030028;28;20492;-71
2021/12/11 11:48:09;;;;;;;0.68;0.68;;;;;;;;;;5028432;28;20031;-71
2021/12/11 11:50:39;;;;;;;0.32;0.30;;;;;;;;;;5025082;28;20780;-72
2021/12/11 11:53:06;;;;;;;0.20;0.20;;;;;;;;;;5028225;28;20033;-71
2021/12/11 11:55:35;;;;;;;2.78;1.40;;;;;;;;;;5027275;28;20052;-72
2021/12/11 11:58:04;;;;;;;0.30;0.30;;;;;;;;;;5033398;28;20067;-71
2021/12/11 12:00:39;;;;;;;0.10;0.10;;;;;;;;;;5029490;28;20052;-72
2021/12/11 12:03:05;;;;;;;1.55;1.20;;;;;;;;;;5031518;28;20053;-73
2021/12/11 12:05:35;;;;;;;1.13;1.13;;;;;;;;;;5040638;28;20043;-71
2021/12/11 12:08:01;;;;;;;1.40;1.17;;;;;;;;;;5039193;28;20037;-72
2021/12/11 12:10:30;;;;;;;0.57;0.57;;;;;;;;;;5024721;28;20029;-72
2021/12/11 12:12:57;;;;;;;0.30;0.30;;;;;;;;;;5023198;28;20017;-72
2021/12/11 12:15:30;;;;;;;0.75;0.75;;;;;;;;;;5040544;28;20025;-72
2021/12/11 12:17:56;;;;;;;3.22;1.85;;;;;;;;;;5038235;28;20036;-72
2021/12/11 12:20:26;;;;;;;3.50;0.55;;;;;;;;;;5038602;28;20037;-72
2021/12/11 12:22:52;;;;;;;2.22;0.93;;;;;;;;;;5033313;28;20025;-74
2021/12/11 12:25:19;;;;;;;0.68;0.68;;;;;;;;;;5028017;28;20022;-72
2021/12/11 12:27:45;;;;;;;0.65;0.65;;;;;;;;;;5039211;28;20029;-71
2021/12/11 12:30:15;;;;;;;1.75;1.65;;;;;;;;;;5028250;28;20116;-70
2021/12/11 12:32:41;;;;;;;0.57;0.57;;;;;;;;;;5032652;28;20525;-71
2021/12/11 12:35:09;;;;;;;0.50;0.50;;;;;;;;;;5029669;28;20582;-72
2021/12/11 12:37:38;;;;;;;0.88;0.88;;;;;;;;;;5032823;28;20033;-73
2021/12/11 12:40:07;;;;;;;0.80;0.60;;;;;;;;;;5035251;28;20034;-73
2021/12/11 12:42:41;;;;;;;0.68;0.68;;;;;;;;;;5025370;28;20029;-72
2021/12/11 12:45:15;;;;;;;1.50;1.17;;;;;;;;;;5035807;28;20028;-72
2021/12/11 12:50:49;;;;;;;1.25;1.15;;;;;;;;;;5027311;28;20060;-72
2021/12/11 12:53:16;;;;;;;1.77;1.42;;;;;;;;;;5032070;28;20029;-72
2021/12/11 12:55:45;;;;;;;0.70;0.70;;;;;;;;;;5028467;28;20066;-70
2021/12/11 12:58:13;;;;;;;2.28;0.63;;;;;;;;;;5027873;28;20033;-72
2021/12/11 13:00:44;;;;;;;2.35;1.50;;;;;;;;;;5035387;28;20464;-72
2021/12/11 13:03:13;;;;;;;4.03;2.10;;;;;;;;;;5024210;28;20029;-71
2021/12/11 13:05:42;;;;;;;2.33;1.48;;;;;;;;;;5026316;28;20037;-74
2021/12/11 13:08:11;;;;;;;0.30;0.30;;;;;;;;;;5031253;28;20029;-73
2021/12/11 13:10:43;;;;;;;0.90;0.80;;;;;;;;;;5037243;28;20036;-74
2021/12/11 13:13:12;;;;;;;1.00;1.00;;;;;;;;;;5034919;28;20013;-74
2021/12/11 13:15:52;;;;;;;0.68;0.68;;;;;;;;;;5029841;28;20071;-74
2021/12/11 13:18:20;;;;;;;2.22;1.25;;;;;;;;;;5034893;28;20033;-73
2021/12/11 13:20:49;;;;;;;1.98;1.85;;;;;;;;;;5039124;28;20025;-73
2021/12/11 13:23:16;;;;;;;0.90;0.90;;;;;;;;;;5035591;28;20052;-73
2021/12/11 13:26:08;;;;;;;0.35;0.35;;;;;;;;;;5032575;28;20123;-73
2021/12/11 13:28:38;;;;;;;0.95;0.95;;;;;;;;;;5040025;28;20123;-74
2021/12/11 13:31:11;;;;;;;0.17;0.17;;;;;;;;;;5044799;28;20021;-74
2021/12/11 13:33:39;;;;;;;5.10;1.00;;;;;;;;;;5037669;28;20044;-74
2021/12/11 13:36:05;;;;;;;0.22;0.22;;;;;;;;;;5034348;28;20412;-74
2021/12/11 13:38:31;;;;;;;0.15;0.15;;;;;;;;;;5041051;28;20024;-74
2021/12/11 13:41:01;;;;;;;2.53;2.35;;;;;;;;;;5033825;28;20029;-76
2021/12/11 13:43:27;;;;;;;1.58;0.93;;;;;;;;;;5036243;28;20037;-75
2021/12/11 13:45:55;;;;;;;1.20;1.20;;;;;;;;;;5037863;28;20048;-75
2021/12/11 13:48:21;;;;;;;0.20;0.20;;;;;;;;;;5035260;28;20036;-75
2021/12/11 13:50:50;;;;;;;1.40;1.30;;;;;;;;;;5032619;28;20029;-76
2021/12/11 13:53:16;;;;;;;2.05;1.75;;;;;;;;;;5035946;28;20033;-77
2021/12/11 13:55:43;;;;;;;3.13;2.08;;;;;;;;;;5033894;28;20021;-75
2021/12/11 13:58:09;;;;;;;0.20;0.20;;;;;;;;;;5032973;28;20022;-76
2021/12/11 14:00:38;;;;;;;1.98;1.35;;;;;;;;;;5028578;28;20075;-75
2021/12/11 14:03:04;;;;;;;1.30;0.77;;;;;;;;;;5027927;28;20032;-78
2021/12/11 14:05:32;;;;;;;0.57;0.57;;;;;;;;;;5035861;28;20021;-79
2021/12/11 14:07:58;;;;;;;1.40;0.57;;;;;;;;;;5025616;28;20017;-79
2021/12/11 14:10:31;;;;;;;2.45;1.83;;;;;;;;;;5033604;28;20483;-78
2021/12/11 14:12:57;;;;;;;0.38;0.38;;;;;;;;;;5029228;28;20030;-76
2021/12/11 14:15:23;;;;;;;0.52;0.52;;;;;;;;;;5026659;28;20028;-78
2021/12/11 14:17:50;;;;;;;0.70;0.70;;;;;;;;;;5024444;28;20443;-85
2021/12/11 14:20:18;;;;;;;0.40;0.40;;;;;;;;;;5034781;28;20025;-74
2021/12/11 14:22:44;;;;;;;1.38;1.20;;;;;;;;;;5030617;28;20031;-73
2021/12/11 14:25:11;;;;;;;1.13;1.05;;;;;;;;;;5018752;28;20041;-73
2021/12/11 14:27:37;;;;;;;2.72;1.38;;;;;;;;;;5032258;28;20033;-73
2021/12/11 14:30:05;;;;;;;1.45;0.47;;;;;;;;;;5027539;28;20029;-73
2021/12/11 14:32:34;;;;;;;0.75;0.70;;;;;;;;;;5030968;28;20488;-73
2021/12/11 14:35:01;;;;;;;1.02;0.85;;;;;;;;;;5028780;28;20028;-75
2021/12/11 14:37:27;;;;;;;1.20;1.17;;;;;;;;;;5029547;28;20052;-75
2021/12/11 14:39:53;;;;;;;1.25;0.88;;;;;;;;;;5037646;28;20055;-74
2021/12/11 14:42:21;;;;;;;3.95;0.98;;;;;;;;;;5036383;28;20029;-75
2021/12/11 14:44:48;;;;;;;0.10;0.10;;;;;;;;;;5036551;28;20044;-76
2021/12/11 14:47:15;;;;;;;2.13;1.75;;;;;;;;;;5037306;28;20086;-75
2021/12/11 14:49:43;;;;;;;1.60;1.50;;;;;;;;;;5032753;28;20103;-75
2021/12/11 14:52:12;;;;;;;0.22;0.22;;;;;;;;;;5030894;28;20067;-76
2021/12/11 14:54:38;;;;;;;0.55;0.55;;;;;;;;;;5035709;28;20459;-75
2021/12/11 14:57:05;;;;;;;0.63;0.63;;;;;;;;;;5032608;28;20079;-74
2021/12/11 14:59:36;;;;;;;0.85;0.85;;;;;;;;;;5027731;28;20491;-74
2021/12/11 15:02:10;;;;;;;1.00;0.95;;;;;;;;;;5027718;28;20384;-76
2021/12/11 15:04:39;;;;;;;0.45;0.45;;;;;;;;;;5031980;28;20066;-70
2021/12/11 15:07:06;;;;;;;3.00;1.85;;;;;;;;;;5029651;28;20037;-73